sensor_id;sensor_type;location;lat;lon;timestamp;P1;durP1;ratioP1;P2;durP2;ratioP2
44893;SDS011;30625;52.206;21.030;2022-09-16T00:01:15;11.57;;;4.97;;
44893;SDS011;30625;52.206;21.030;2022-09-16T00:03:43;10.27;;;4.63;;
44893;SDS011;30625;52.206;21.030;2022-09-16T00:06:17;10.05;;;4.50;;
44893;SDS011;30625;52.206;21.030;2022-09-16T00:08:45;10.07;;;4.63;;
44893;SDS011;30625;52.206;21.030;2022-09-16T00:11:11;11.52;;;5.78;;
44893;SDS011;30625;52.206;21.030;2022-09-16T00:13:37;10.43;;;4.75;;
44893;SDS011;30625;52.206;21.030;2022-09-16T00:16:07;11.32;;;5.63;;
44893;SDS011;30625;52.206;21.030;2022-09-16T00:18:35;10.52;;;4.93;;
44893;SDS011;30625;52.206;21.030;2022-09-16T00:21:01;9.95;;;5.30;;
44893;SDS011;30625;52.206;21.030;2022-09-16T00:23:31;9.30;;;3.88;;
44893;SDS011;30625;52.206;21.030;2022-09-16T00:25:57;14.25;;;5.38;;
44893;SDS011;30625;52.206;21.030;2022-09-16T00:28:22;9.88;;;4.47;;
44893;SDS011;30625;52.206;21.030;2022-09-16T00:33:15;6.90;;;4.03;;
44893;SDS011;30625;52.206;21.030;2022-09-16T00:35:41;10.05;;;4.22;;
44893;SDS011;30625;52.206;21.030;2022-09-16T00:38:06;11.98;;;5.70;;
44893;SDS011;30625;52.206;21.030;2022-09-16T00:40:33;11.05;;;5.15;;
44893;SDS011;30625;52.206;21.030;2022-09-16T00:42:59;9.98;;;5.30;;
44893;SDS011;30625;52.206;21.030;2022-09-16T00:45:25;10.88;;;4.68;;
44893;SDS011;30625;52.206;21.030;2022-09-16T00:48:00;9.60;;;4.45;;
44893;SDS011;30625;52.206;21.030;2022-09-16T00:50:35;10.63;;;4.25;;
44893;SDS011;30625;52.206;21.030;2022-09-16T00:53:11;11.05;;;4.72;;
44893;SDS011;30625;52.206;21.030;2022-09-16T00:55:41;8.10;;;4.30;;
44893;SDS011;30625;52.206;21.030;2022-09-16T00:58:09;12.05;;;5.25;;
44893;SDS011;30625;52.206;21.030;2022-09-16T01:00:44;12.02;;;4.45;;
44893;SDS011;30625;52.206;21.030;2022-09-16T01:08:02;10.75;;;3.90;;
44893;SDS011;30625;52.206;21.030;2022-09-16T01:12:56;9.88;;;3.88;;
44893;SDS011;30625;52.206;21.030;2022-09-16T01:16:12;9.52;;;3.83;;
44893;SDS011;30625;52.206;21.030;2022-09-16T01:32:56;7.63;;;3.92;;
44893;SDS011;30625;52.206;21.030;2022-09-16T01:40:51;9.63;;;3.83;;
44893;SDS011;30625;52.206;21.030;2022-09-16T01:46:17;8.80;;;4.43;;
44893;SDS011;30625;52.206;21.030;2022-09-16T01:51:43;7.63;;;3.10;;
44893;SDS011;30625;52.206;21.030;2022-09-16T01:54:20;7.20;;;3.35;;
44893;SDS011;30625;52.206;21.030;2022-09-16T02:05:18;6.93;;;2.90;;
44893;SDS011;30625;52.206;21.030;2022-09-16T02:07:53;7.68;;;3.20;;
44893;SDS011;30625;52.206;21.030;2022-09-16T02:10:28;7.18;;;3.30;;
44893;SDS011;30625;52.206;21.030;2022-09-16T02:13:02;7.75;;;3.30;;
44893;SDS011;30625;52.206;21.030;2022-09-16T02:15:32;7.40;;;2.90;;
44893;SDS011;30625;52.206;21.030;2022-09-16T02:20:30;5.88;;;2.30;;
44893;SDS011;30625;52.206;21.030;2022-09-16T02:23:08;8.82;;;2.78;;
44893;SDS011;30625;52.206;21.030;2022-09-16T02:25:47;7.10;;;2.72;;
44893;SDS011;30625;52.206;21.030;2022-09-16T02:28:16;8.25;;;2.90;;
44893;SDS011;30625;52.206;21.030;2022-09-16T02:30:49;5.78;;;2.47;;
44893;SDS011;30625;52.206;21.030;2022-09-16T02:33:18;6.75;;;2.13;;
44893;SDS011;30625;52.206;21.030;2022-09-16T02:35:47;7.45;;;3.05;;
44893;SDS011;30625;52.206;21.030;2022-09-16T02:38:19;7.80;;;2.83;;
44893;SDS011;30625;52.206;21.030;2022-09-16T02:40:55;7.03;;;2.60;;
44893;SDS011;30625;52.206;21.030;2022-09-16T02:43:23;7.35;;;2.30;;
44893;SDS011;30625;52.206;21.030;2022-09-16T02:48:45;8.77;;;2.75;;
44893;SDS011;30625;52.206;21.030;2022-09-16T02:51:36;5.47;;;2.40;;
44893;SDS011;30625;52.206;21.030;2022-09-16T02:54:20;11.20;;;3.45;;
44893;SDS011;30625;52.206;21.030;2022-09-16T02:56:50;7.43;;;2.95;;
44893;SDS011;30625;52.206;21.030;2022-09-16T02:59:18;7.88;;;3.30;;
44893;SDS011;30625;52.206;21.030;2022-09-16T03:01:45;7.97;;;2.83;;
44893;SDS011;30625;52.206;21.030;2022-09-16T03:04:11;8.65;;;3.20;;
44893;SDS011;30625;52.206;21.030;2022-09-16T03:06:39;8.23;;;4.00;;
44893;SDS011;30625;52.206;21.030;2022-09-16T03:09:06;8.82;;;2.65;;
44893;SDS011;30625;52.206;21.030;2022-09-16T03:11:39;9.73;;;3.88;;
44893;SDS011;30625;52.206;21.030;2022-09-16T03:20:02;9.70;;;3.08;;
44893;SDS011;30625;52.206;21.030;2022-09-16T03:28:11;9.48;;;3.22;;
44893;SDS011;30625;52.206;21.030;2022-09-16T03:30:57;5.07;;;2.38;;
44893;SDS011;30625;52.206;21.030;2022-09-16T03:36:17;9.23;;;3.47;;
44893;SDS011;30625;52.206;21.030;2022-09-16T03:38:47;10.07;;;3.67;;
44893;SDS011;30625;52.206;21.030;2022-09-16T03:43:50;8.60;;;3.22;;
44893;SDS011;30625;52.206;21.030;2022-09-16T03:46:21;6.88;;;3.10;;
44893;SDS011;30625;52.206;21.030;2022-09-16T03:51:13;6.07;;;3.00;;
44893;SDS011;30625;52.206;21.030;2022-09-16T03:53:40;7.63;;;2.83;;
44893;SDS011;30625;52.206;21.030;2022-09-16T03:56:06;8.50;;;3.38;;
44893;SDS011;30625;52.206;21.030;2022-09-16T03:58:32;12.45;;;3.08;;
44893;SDS011;30625;52.206;21.030;2022-09-16T04:01:00;7.78;;;2.55;;
44893;SDS011;30625;52.206;21.030;2022-09-16T04:03:27;8.10;;;2.90;;
44893;SDS011;30625;52.206;21.030;2022-09-16T04:05:54;8.77;;;3.05;;
44893;SDS011;30625;52.206;21.030;2022-09-16T04:08:20;11.07;;;3.45;;
44893;SDS011;30625;52.206;21.030;2022-09-16T04:10:56;7.53;;;2.72;;
44893;SDS011;30625;52.206;21.030;2022-09-16T04:13:30;7.38;;;2.92;;
44893;SDS011;30625;52.206;21.030;2022-09-16T04:15:57;11.55;;;3.25;;
44893;SDS011;30625;52.206;21.030;2022-09-16T04:18:23;8.80;;;3.10;;
44893;SDS011;30625;52.206;21.030;2022-09-16T04:23:15;6.88;;;3.03;;
44893;SDS011;30625;52.206;21.030;2022-09-16T04:25:41;10.23;;;3.88;;
44893;SDS011;30625;52.206;21.030;2022-09-16T04:28:07;7.97;;;3.35;;
44893;SDS011;30625;52.206;21.030;2022-09-16T04:30:33;8.70;;;2.83;;
44893;SDS011;30625;52.206;21.030;2022-09-16T04:32:58;8.15;;;4.15;;
44893;SDS011;30625;52.206;21.030;2022-09-16T04:35:24;8.93;;;3.95;;
44893;SDS011;30625;52.206;21.030;2022-09-16T04:37:50;9.50;;;3.50;;
44893;SDS011;30625;52.206;21.030;2022-09-16T04:40:16;9.50;;;3.28;;
44893;SDS011;30625;52.206;21.030;2022-09-16T04:42:49;8.13;;;2.92;;
44893;SDS011;30625;52.206;21.030;2022-09-16T04:45:15;8.32;;;4.25;;
44893;SDS011;30625;52.206;21.030;2022-09-16T04:47:41;9.07;;;3.95;;
44893;SDS011;30625;52.206;21.030;2022-09-16T04:50:07;7.82;;;3.53;;
44893;SDS011;30625;52.206;21.030;2022-09-16T04:52:32;8.75;;;3.58;;
44893;SDS011;30625;52.206;21.030;2022-09-16T04:54:58;13.40;;;4.38;;
44893;SDS011;30625;52.206;21.030;2022-09-16T04:57:24;7.10;;;3.53;;
44893;SDS011;30625;52.206;21.030;2022-09-16T04:59:50;11.38;;;3.58;;
44893;SDS011;30625;52.206;21.030;2022-09-16T05:02:16;7.28;;;3.30;;
44893;SDS011;30625;52.206;21.030;2022-09-16T05:04:41;9.57;;;3.90;;
44893;SDS011;30625;52.206;21.030;2022-09-16T05:07:07;10.73;;;3.67;;
44893;SDS011;30625;52.206;21.030;2022-09-16T05:09:33;7.35;;;3.05;;
44893;SDS011;30625;52.206;21.030;2022-09-16T05:12:01;7.07;;;2.97;;
44893;SDS011;30625;52.206;21.030;2022-09-16T05:14:27;11.48;;;3.35;;
44893;SDS011;30625;52.206;21.030;2022-09-16T05:16:53;7.57;;;3.00;;
44893;SDS011;30625;52.206;21.030;2022-09-16T05:19:18;7.18;;;3.17;;
44893;SDS011;30625;52.206;21.030;2022-09-16T05:21:44;7.30;;;3.47;;
44893;SDS011;30625;52.206;21.030;2022-09-16T05:24:11;7.35;;;3.20;;
44893;SDS011;30625;52.206;21.030;2022-09-16T05:26:38;7.35;;;3.05;;
44893;SDS011;30625;52.206;21.030;2022-09-16T05:29:13;7.38;;;2.95;;
44893;SDS011;30625;52.206;21.030;2022-09-16T05:31:41;7.05;;;2.75;;
44893;SDS011;30625;52.206;21.030;2022-09-16T05:34:15;6.03;;;2.65;;
44893;SDS011;30625;52.206;21.030;2022-09-16T05:36:45;10.48;;;2.45;;
44893;SDS011;30625;52.206;21.030;2022-09-16T05:39:13;10.93;;;3.17;;
44893;SDS011;30625;52.206;21.030;2022-09-16T05:41:42;8.05;;;2.60;;
44893;SDS011;30625;52.206;21.030;2022-09-16T05:44:09;7.65;;;2.40;;
44893;SDS011;30625;52.206;21.030;2022-09-16T05:46:35;7.85;;;2.90;;
44893;SDS011;30625;52.206;21.030;2022-09-16T05:49:04;10.88;;;2.63;;
44893;SDS011;30625;52.206;21.030;2022-09-16T05:51:31;8.20;;;3.03;;
44893;SDS011;30625;52.206;21.030;2022-09-16T05:53:57;6.88;;;2.38;;
44893;SDS011;30625;52.206;21.030;2022-09-16T05:56:27;6.47;;;2.42;;
44893;SDS011;30625;52.206;21.030;2022-09-16T05:58:55;7.13;;;2.15;;
44893;SDS011;30625;52.206;21.030;2022-09-16T06:01:23;7.53;;;2.30;;
44893;SDS011;30625;52.206;21.030;2022-09-16T06:03:51;7.82;;;2.35;;
44893;SDS011;30625;52.206;21.030;2022-09-16T06:06:23;7.57;;;1.98;;
44893;SDS011;30625;52.206;21.030;2022-09-16T06:08:54;7.80;;;2.33;;
44893;SDS011;30625;52.206;21.030;2022-09-16T06:11:42;8.40;;;2.55;;
44893;SDS011;30625;52.206;21.030;2022-09-16T06:14:09;4.03;;;1.85;;
44893;SDS011;30625;52.206;21.030;2022-09-16T06:16:36;7.10;;;2.28;;
44893;SDS011;30625;52.206;21.030;2022-09-16T06:19:04;7.95;;;1.92;;
44893;SDS011;30625;52.206;21.030;2022-09-16T06:21:34;7.53;;;2.90;;
44893;SDS011;30625;52.206;21.030;2022-09-16T06:24:01;8.07;;;3.00;;
44893;SDS011;30625;52.206;21.030;2022-09-16T06:26:27;8.27;;;2.22;;
44893;SDS011;30625;52.206;21.030;2022-09-16T06:28:53;10.05;;;2.47;;
44893;SDS011;30625;52.206;21.030;2022-09-16T06:31:23;10.68;;;2.60;;
44893;SDS011;30625;52.206;21.030;2022-09-16T06:33:51;6.28;;;2.80;;
44893;SDS011;30625;52.206;21.030;2022-09-16T06:36:18;7.82;;;2.83;;
44893;SDS011;30625;52.206;21.030;2022-09-16T06:38:46;7.20;;;2.47;;
44893;SDS011;30625;52.206;21.030;2022-09-16T06:41:13;6.45;;;2.50;;
44893;SDS011;30625;52.206;21.030;2022-09-16T06:43:40;7.47;;;2.20;;
44893;SDS011;30625;52.206;21.030;2022-09-16T06:46:08;7.30;;;2.63;;
44893;SDS011;30625;52.206;21.030;2022-09-16T06:48:37;7.28;;;2.50;;
44893;SDS011;30625;52.206;21.030;2022-09-16T06:51:05;5.57;;;2.15;;
44893;SDS011;30625;52.206;21.030;2022-09-16T06:53:33;6.35;;;2.30;;
44893;SDS011;30625;52.206;21.030;2022-09-16T06:56:04;7.38;;;1.65;;
44893;SDS011;30625;52.206;21.030;2022-09-16T06:58:32;6.35;;;1.98;;
44893;SDS011;30625;52.206;21.030;2022-09-16T07:01:10;8.68;;;2.17;;
44893;SDS011;30625;52.206;21.030;2022-09-16T07:03:37;11.05;;;2.50;;
44893;SDS011;30625;52.206;21.030;2022-09-16T07:06:04;4.90;;;1.80;;
44893;SDS011;30625;52.206;21.030;2022-09-16T07:08:32;8.05;;;2.10;;
44893;SDS011;30625;52.206;21.030;2022-09-16T07:10:59;7.78;;;2.42;;
44893;SDS011;30625;52.206;21.030;2022-09-16T07:13:34;6.28;;;2.33;;
44893;SDS011;30625;52.206;21.030;2022-09-16T07:18:27;8.88;;;2.15;;
44893;SDS011;30625;52.206;21.030;2022-09-16T07:21:15;7.13;;;1.85;;
44893;SDS011;30625;52.206;21.030;2022-09-16T07:23:41;6.13;;;1.67;;
44893;SDS011;30625;52.206;21.030;2022-09-16T07:26:09;9.45;;;2.00;;
44893;SDS011;30625;52.206;21.030;2022-09-16T07:28:35;10.05;;;2.10;;
44893;SDS011;30625;52.206;21.030;2022-09-16T07:31:02;6.60;;;1.50;;
44893;SDS011;30625;52.206;21.030;2022-09-16T07:33:30;7.70;;;1.33;;
44893;SDS011;30625;52.206;21.030;2022-09-16T07:35:59;6.82;;;1.33;;
44893;SDS011;30625;52.206;21.030;2022-09-16T07:40:51;8.50;;;1.48;;
44893;SDS011;30625;52.206;21.030;2022-09-16T07:43:17;8.20;;;1.50;;
44893;SDS011;30625;52.206;21.030;2022-09-16T07:45:43;10.85;;;2.40;;
44893;SDS011;30625;52.206;21.030;2022-09-16T07:48:08;4.88;;;0.90;;
44893;SDS011;30625;52.206;21.030;2022-09-16T07:50:34;7.55;;;1.10;;
44893;SDS011;30625;52.206;21.030;2022-09-16T07:53:00;10.90;;;1.48;;
44893;SDS011;30625;52.206;21.030;2022-09-16T07:57:52;7.18;;;1.48;;
44893;SDS011;30625;52.206;21.030;2022-09-16T08:00:18;6.30;;;1.20;;
44893;SDS011;30625;52.206;21.030;2022-09-16T08:02:44;7.95;;;1.02;;
44893;SDS011;30625;52.206;21.030;2022-09-16T08:05:10;11.85;;;1.60;;
44893;SDS011;30625;52.206;21.030;2022-09-16T08:07:37;9.00;;;1.35;;
44893;SDS011;30625;52.206;21.030;2022-09-16T08:10:03;8.52;;;1.20;;
44893;SDS011;30625;52.206;21.030;2022-09-16T08:12:29;8.55;;;1.33;;
44893;SDS011;30625;52.206;21.030;2022-09-16T08:14:58;6.78;;;1.35;;
44893;SDS011;30625;52.206;21.030;2022-09-16T08:17:24;9.85;;;1.50;;
44893;SDS011;30625;52.206;21.030;2022-09-16T08:19:53;13.25;;;1.67;;
44893;SDS011;30625;52.206;21.030;2022-09-16T08:22:19;4.35;;;1.00;;
44893;SDS011;30625;52.206;21.030;2022-09-16T08:24:47;10.05;;;1.95;;
44893;SDS011;30625;52.206;21.030;2022-09-16T08:27:13;6.78;;;1.55;;
44893;SDS011;30625;52.206;21.030;2022-09-16T08:29:39;8.25;;;1.13;;
44893;SDS011;30625;52.206;21.030;2022-09-16T08:32:05;14.40;;;1.20;;
44893;SDS011;30625;52.206;21.030;2022-09-16T08:34:30;11.18;;;1.70;;
44893;SDS011;30625;52.206;21.030;2022-09-16T08:36:56;7.93;;;1.48;;
44893;SDS011;30625;52.206;21.030;2022-09-16T08:39:22;8.07;;;1.40;;
44893;SDS011;30625;52.206;21.030;2022-09-16T08:49:47;9.48;;;1.25;;
44893;SDS011;30625;52.206;21.030;2022-09-16T08:52:31;7.55;;;1.00;;
44893;SDS011;30625;52.206;21.030;2022-09-16T08:57:29;8.50;;;1.30;;
44893;SDS011;30625;52.206;21.030;2022-09-16T09:00:12;8.38;;;1.50;;
44893;SDS011;30625;52.206;21.030;2022-09-16T09:05:14;6.95;;;1.17;;
44893;SDS011;30625;52.206;21.030;2022-09-16T09:10:49;5.15;;;1.15;;
44893;SDS011;30625;52.206;21.030;2022-09-16T09:16:04;7.15;;;1.27;;
44893;SDS011;30625;52.206;21.030;2022-09-16T09:32:22;7.95;;;1.98;;
44893;SDS011;30625;52.206;21.030;2022-09-16T09:35:05;11.23;;;1.92;;
44893;SDS011;30625;52.206;21.030;2022-09-16T09:40:36;11.40;;;2.63;;
44893;SDS011;30625;52.206;21.030;2022-09-16T09:45:35;11.65;;;1.10;;
44893;SDS011;30625;52.206;21.030;2022-09-16T09:50:43;8.30;;;1.60;;
44893;SDS011;30625;52.206;21.030;2022-09-16T09:55:36;5.90;;;1.05;;
44893;SDS011;30625;52.206;21.030;2022-09-16T10:00:59;6.57;;;1.10;;
44893;SDS011;30625;52.206;21.030;2022-09-16T10:03:26;4.60;;;1.00;;
44893;SDS011;30625;52.206;21.030;2022-09-16T10:05:52;3.53;;;0.93;;
44893;SDS011;30625;52.206;21.030;2022-09-16T10:08:24;8.77;;;1.23;;
44893;SDS011;30625;52.206;21.030;2022-09-16T10:11:00;8.57;;;1.73;;
44893;SDS011;30625;52.206;21.030;2022-09-16T10:13:28;4.32;;;1.02;;
44893;SDS011;30625;52.206;21.030;2022-09-16T10:16:14;12.40;;;1.25;;
44893;SDS011;30625;52.206;21.030;2022-09-16T10:18:44;5.68;;;0.68;;
44893;SDS011;30625;52.206;21.030;2022-09-16T10:21:43;8.82;;;0.90;;
44893;SDS011;30625;52.206;21.030;2022-09-16T10:26:57;9.95;;;1.67;;
44893;SDS011;30625;52.206;21.030;2022-09-16T10:29:24;7.15;;;1.02;;
44893;SDS011;30625;52.206;21.030;2022-09-16T10:31:50;7.53;;;1.13;;
44893;SDS011;30625;52.206;21.030;2022-09-16T10:36:45;4.15;;;0.80;;
44893;SDS011;30625;52.206;21.030;2022-09-16T10:39:23;9.75;;;1.10;;
44893;SDS011;30625;52.206;21.030;2022-09-16T10:41:51;8.55;;;1.00;;
44893;SDS011;30625;52.206;21.030;2022-09-16T10:44:30;8.27;;;1.40;;
44893;SDS011;30625;52.206;21.030;2022-09-16T10:47:02;5.78;;;0.90;;
44893;SDS011;30625;52.206;21.030;2022-09-16T10:49:37;7.03;;;1.42;;
44893;SDS011;30625;52.206;21.030;2022-09-16T10:52:22;6.20;;;1.00;;
44893;SDS011;30625;52.206;21.030;2022-09-16T10:54:50;4.60;;;0.85;;
44893;SDS011;30625;52.206;21.030;2022-09-16T11:00:22;2.97;;;0.80;;
44893;SDS011;30625;52.206;21.030;2022-09-16T11:11:49;2.22;;;0.60;;
44893;SDS011;30625;52.206;21.030;2022-09-16T11:17:09;5.65;;;0.90;;
44893;SDS011;30625;52.206;21.030;2022-09-16T11:27:50;4.13;;;0.70;;
44893;SDS011;30625;52.206;21.030;2022-09-16T11:30:20;2.63;;;0.70;;
44893;SDS011;30625;52.206;21.030;2022-09-16T11:37:53;7.43;;;1.00;;
44893;SDS011;30625;52.206;21.030;2022-09-16T11:45:26;7.63;;;0.70;;
44893;SDS011;30625;52.206;21.030;2022-09-16T11:53:56;7.32;;;0.93;;
44893;SDS011;30625;52.206;21.030;2022-09-16T11:56:43;3.97;;;0.85;;
44893;SDS011;30625;52.206;21.030;2022-09-16T12:01:41;5.45;;;0.80;;
44893;SDS011;30625;52.206;21.030;2022-09-16T12:04:11;5.43;;;0.88;;
44893;SDS011;30625;52.206;21.030;2022-09-16T12:06:51;4.57;;;0.93;;
44893;SDS011;30625;52.206;21.030;2022-09-16T12:09:22;5.60;;;0.63;;
44893;SDS011;30625;52.206;21.030;2022-09-16T12:12:04;6.10;;;0.90;;
44893;SDS011;30625;52.206;21.030;2022-09-16T12:14:37;4.25;;;0.50;;
44893;SDS011;30625;52.206;21.030;2022-09-16T12:17:19;5.53;;;1.08;;
44893;SDS011;30625;52.206;21.030;2022-09-16T12:19:52;4.28;;;0.70;;
44893;SDS011;30625;52.206;21.030;2022-09-16T12:22:40;4.30;;;0.85;;
44893;SDS011;30625;52.206;21.030;2022-09-16T12:25:26;3.75;;;0.90;;
44893;SDS011;30625;52.206;21.030;2022-09-16T12:27:59;6.15;;;1.48;;
44893;SDS011;30625;52.206;21.030;2022-09-16T12:30:33;5.85;;;0.90;;
44893;SDS011;30625;52.206;21.030;2022-09-16T12:33:22;3.42;;;0.70;;
44893;SDS011;30625;52.206;21.030;2022-09-16T12:38:22;3.92;;;0.55;;
44893;SDS011;30625;52.206;21.030;2022-09-16T12:41:02;5.30;;;0.82;;
44893;SDS011;30625;52.206;21.030;2022-09-16T12:43:42;4.75;;;0.77;;
44893;SDS011;30625;52.206;21.030;2022-09-16T13:02:53;7.32;;;1.05;;
44893;SDS011;30625;52.206;21.030;2022-09-16T13:05:27;7.10;;;1.05;;
44893;SDS011;30625;52.206;21.030;2022-09-16T13:07:59;6.68;;;0.70;;
44893;SDS011;30625;52.206;21.030;2022-09-16T13:10:44;6.60;;;1.13;;
44893;SDS011;30625;52.206;21.030;2022-09-16T13:13:17;5.93;;;0.85;;
44893;SDS011;30625;52.206;21.030;2022-09-16T13:15:55;7.68;;;0.90;;
44893;SDS011;30625;52.206;21.030;2022-09-16T13:18:24;4.88;;;0.65;;
44893;SDS011;30625;52.206;21.030;2022-09-16T13:24:02;4.53;;;0.80;;
44893;SDS011;30625;52.206;21.030;2022-09-16T13:26:47;5.70;;;0.98;;
44893;SDS011;30625;52.206;21.030;2022-09-16T13:37:56;3.50;;;0.88;;
44893;SDS011;30625;52.206;21.030;2022-09-16T13:40:27;4.72;;;0.70;;
44893;SDS011;30625;52.206;21.030;2022-09-16T13:45:37;4.00;;;0.85;;
44893;SDS011;30625;52.206;21.030;2022-09-16T13:50:40;1.70;;;0.47;;
44893;SDS011;30625;52.206;21.030;2022-09-16T13:53:23;5.05;;;0.70;;
44893;SDS011;30625;52.206;21.030;2022-09-16T14:01:49;4.75;;;1.00;;
44893;SDS011;30625;52.206;21.030;2022-09-16T14:04:51;6.20;;;0.70;;
44893;SDS011;30625;52.206;21.030;2022-09-16T14:13:13;4.22;;;0.82;;
44893;SDS011;30625;52.206;21.030;2022-09-16T14:15:49;5.38;;;1.10;;
44893;SDS011;30625;52.206;21.030;2022-09-16T14:18:19;7.32;;;1.10;;
44893;SDS011;30625;52.206;21.030;2022-09-16T14:23:28;4.97;;;0.65;;
44893;SDS011;30625;52.206;21.030;2022-09-16T14:25:55;4.78;;;0.90;;
44893;SDS011;30625;52.206;21.030;2022-09-16T14:28:23;4.53;;;0.80;;
44893;SDS011;30625;52.206;21.030;2022-09-16T14:33:26;5.00;;;0.70;;
44893;SDS011;30625;52.206;21.030;2022-09-16T14:35:53;2.25;;;0.70;;
44893;SDS011;30625;52.206;21.030;2022-09-16T14:38:21;6.47;;;0.77;;
44893;SDS011;30625;52.206;21.030;2022-09-16T14:40:57;8.68;;;1.52;;
44893;SDS011;30625;52.206;21.030;2022-09-16T14:43:23;2.72;;;0.50;;
44893;SDS011;30625;52.206;21.030;2022-09-16T14:45:50;4.35;;;0.80;;
44893;SDS011;30625;52.206;21.030;2022-09-16T14:48:19;7.20;;;0.80;;
44893;SDS011;30625;52.206;21.030;2022-09-16T14:50:56;9.27;;;0.80;;
44893;SDS011;30625;52.206;21.030;2022-09-16T14:53:30;2.28;;;0.60;;
44893;SDS011;30625;52.206;21.030;2022-09-16T14:56:00;4.72;;;0.65;;
44893;SDS011;30625;52.206;21.030;2022-09-16T14:58:27;4.72;;;0.77;;
44893;SDS011;30625;52.206;21.030;2022-09-16T15:03:28;3.03;;;0.80;;
44893;SDS011;30625;52.206;21.030;2022-09-16T15:06:02;3.55;;;1.02;;
44893;SDS011;30625;52.206;21.030;2022-09-16T15:08:51;5.25;;;0.95;;
44893;SDS011;30625;52.206;21.030;2022-09-16T15:11:24;2.67;;;0.65;;
44893;SDS011;30625;52.206;21.030;2022-09-16T15:13:53;8.88;;;0.98;;
44893;SDS011;30625;52.206;21.030;2022-09-16T15:23:45;5.03;;;1.00;;
44893;SDS011;30625;52.206;21.030;2022-09-16T15:26:17;3.95;;;0.90;;
44893;SDS011;30625;52.206;21.030;2022-09-16T15:29:03;3.17;;;0.70;;
44893;SDS011;30625;52.206;21.030;2022-09-16T15:31:38;6.67;;;1.07;;
44893;SDS011;30625;52.206;21.030;2022-09-16T15:44:41;5.63;;;0.80;;
44893;SDS011;30625;52.206;21.030;2022-09-16T15:47:53;2.35;;;0.70;;
44893;SDS011;30625;52.206;21.030;2022-09-16T15:50:09;5.03;;;1.27;;
44893;SDS011;30625;52.206;21.030;2022-09-16T16:03:36;4.25;;;1.02;;
44893;SDS011;30625;52.206;21.030;2022-09-16T16:06:12;3.60;;;0.90;;
44893;SDS011;30625;52.206;21.030;2022-09-16T16:11:09;2.83;;;0.68;;
44893;SDS011;30625;52.206;21.030;2022-09-16T16:13:38;4.25;;;0.80;;
44893;SDS011;30625;52.206;21.030;2022-09-16T16:16:04;5.50;;;0.80;;
44893;SDS011;30625;52.206;21.030;2022-09-16T16:18:31;3.42;;;0.95;;
44893;SDS011;30625;52.206;21.030;2022-09-16T16:20:57;3.85;;;0.82;;
44893;SDS011;30625;52.206;21.030;2022-09-16T16:23:25;2.65;;;0.90;;
44893;SDS011;30625;52.206;21.030;2022-09-16T16:25:52;3.58;;;0.80;;
44893;SDS011;30625;52.206;21.030;2022-09-16T16:28:17;9.23;;;1.35;;
44893;SDS011;30625;52.206;21.030;2022-09-16T16:30:43;6.63;;;0.80;;
44893;SDS011;30625;52.206;21.030;2022-09-16T16:33:09;7.45;;;1.20;;
44893;SDS011;30625;52.206;21.030;2022-09-16T16:35:35;5.28;;;0.80;;
44893;SDS011;30625;52.206;21.030;2022-09-16T16:38:03;5.85;;;0.82;;
44893;SDS011;30625;52.206;21.030;2022-09-16T16:42:55;3.08;;;0.82;;
44893;SDS011;30625;52.206;21.030;2022-09-16T16:45:20;5.10;;;1.10;;
44893;SDS011;30625;52.206;21.030;2022-09-16T16:47:46;4.68;;;0.98;;
44893;SDS011;30625;52.206;21.030;2022-09-16T16:50:12;4.75;;;1.10;;
44893;SDS011;30625;52.206;21.030;2022-09-16T16:52:38;6.13;;;0.90;;
44893;SDS011;30625;52.206;21.030;2022-09-16T16:55:04;5.40;;;0.73;;
44893;SDS011;30625;52.206;21.030;2022-09-16T16:59:56;4.47;;;1.20;;
44893;SDS011;30625;52.206;21.030;2022-09-16T17:02:21;4.28;;;1.00;;
44893;SDS011;30625;52.206;21.030;2022-09-16T17:04:47;4.80;;;1.05;;
44893;SDS011;30625;52.206;21.030;2022-09-16T17:07:13;3.78;;;1.08;;
44893;SDS011;30625;52.206;21.030;2022-09-16T17:09:39;4.53;;;1.00;;
44893;SDS011;30625;52.206;21.030;2022-09-16T17:12:05;3.17;;;1.17;;
44893;SDS011;30625;52.206;21.030;2022-09-16T17:14:33;5.38;;;1.27;;
44893;SDS011;30625;52.206;21.030;2022-09-16T17:16:59;5.28;;;1.33;;
44893;SDS011;30625;52.206;21.030;2022-09-16T17:19:27;5.25;;;1.10;;
44893;SDS011;30625;52.206;21.030;2022-09-16T17:21:53;7.78;;;1.95;;
44893;SDS011;30625;52.206;21.030;2022-09-16T17:24:20;5.55;;;1.20;;
44893;SDS011;30625;52.206;21.030;2022-09-16T17:26:46;3.92;;;1.30;;
44893;SDS011;30625;52.206;21.030;2022-09-16T17:29:13;5.63;;;1.60;;
44893;SDS011;30625;52.206;21.030;2022-09-16T17:31:39;5.05;;;1.70;;
44893;SDS011;30625;52.206;21.030;2022-09-16T17:34:10;5.00;;;1.60;;
44893;SDS011;30625;52.206;21.030;2022-09-16T17:36:38;7.35;;;1.80;;
44893;SDS011;30625;52.206;21.030;2022-09-16T17:39:09;5.15;;;1.55;;
44893;SDS011;30625;52.206;21.030;2022-09-16T17:41:37;5.88;;;1.50;;
44893;SDS011;30625;52.206;21.030;2022-09-16T17:44:04;5.57;;;1.83;;
44893;SDS011;30625;52.206;21.030;2022-09-16T17:46:31;5.13;;;1.80;;
44893;SDS011;30625;52.206;21.030;2022-09-16T17:49:01;7.50;;;1.77;;
